createdAt,value
2017-11-03T00:01:05.376Z,25.20
2017-11-03T00:03:33.684Z,26.53
2017-11-03T00:06:01.086Z,26.03
2017-11-03T00:08:28.519Z,25.90
2017-11-03T00:10:55.931Z,25.33
2017-11-03T00:13:23.411Z,26.00
2017-11-03T00:15:50.842Z,26.13
2017-11-03T00:18:18.247Z,26.83
2017-11-03T00:20:45.700Z,26.73
2017-11-03T00:23:13.105Z,26.67
2017-11-03T00:25:41.297Z,26.77
2017-11-03T00:28:08.700Z,26.90
2017-11-03T00:30:36.112Z,26.93
2017-11-03T00:33:03.531Z,26.70
2017-11-03T00:35:31.716Z,27.70
2017-11-03T00:37:59.899Z,25.27
2017-11-03T00:40:28.196Z,25.90
2017-11-03T00:42:55.650Z,27.07
2017-11-03T00:45:23.062Z,25.10
2017-11-03T00:47:51.970Z,25.20
2017-11-03T00:50:19.382Z,25.83
2017-11-03T00:52:46.805Z,24.73
2017-11-03T00:55:14.215Z,25.77
2017-11-03T00:57:41.635Z,26.47
2017-11-03T01:00:09.051Z,24.40
2017-11-03T01:02:36.462Z,25.53
2017-11-03T01:05:03.893Z,25.83
2017-11-03T01:07:31.307Z,26.27
2017-11-03T01:09:59.478Z,26.80
2017-11-03T01:12:27.665Z,26.47
2017-11-03T01:14:55.079Z,26.65
2017-11-03T01:17:22.935Z,27.13
2017-11-03T01:19:50.360Z,25.77
2017-11-03T01:22:17.778Z,26.93
2017-11-03T01:24:45.187Z,26.20
2017-11-03T01:27:13.075Z,26.13
2017-11-03T01:29:40.487Z,25.40
2017-11-03T01:32:09.296Z,26.47
2017-11-03T01:34:36.690Z,25.27
2017-11-03T01:37:04.114Z,25.70
2017-11-03T01:39:31.527Z,26.03
2017-11-03T01:41:59.734Z,25.07
2017-11-03T01:44:27.134Z,25.03
2017-11-03T01:46:55.089Z,26.17
2017-11-03T01:49:22.494Z,27.40
2017-11-03T01:51:49.919Z,27.67
2017-11-03T01:54:18.112Z,25.20
2017-11-03T01:56:46.296Z,26.30
2017-11-03T01:59:13.714Z,26.20
2017-11-03T02:01:41.948Z,26.57
2017-11-03T02:04:09.375Z,24.90
2017-11-03T02:06:36.792Z,25.50
2017-11-03T02:09:04.219Z,27.30
2017-11-03T02:11:31.621Z,26.53
2017-11-03T02:14:00.515Z,26.90
2017-11-03T02:16:28.708Z,26.23
2017-11-03T02:18:56.119Z,25.87
2017-11-03T02:21:23.552Z,26.87
2017-11-03T02:23:56.007Z,26.33
2017-11-03T02:26:23.423Z,26.83
2017-11-03T02:28:50.848Z,27.87
2017-11-03T02:31:18.267Z,27.53
2017-11-03T02:33:45.673Z,25.43
2017-11-03T02:36:13.095Z,25.00
2017-11-03T02:38:40.519Z,27.33
2017-11-03T02:41:08.418Z,25.27
2017-11-03T02:43:35.889Z,24.20
2017-11-03T02:46:03.284Z,24.70
2017-11-03T02:48:31.467Z,25.27
2017-11-03T02:50:59.671Z,25.83
2017-11-03T02:53:27.063Z,25.37
2017-11-03T02:55:54.486Z,26.30
2017-11-03T02:58:21.895Z,26.00
2017-11-03T03:00:50.087Z,25.30
2017-11-03T03:03:17.499Z,24.77
2017-11-03T03:05:44.934Z,25.00
2017-11-03T03:08:12.336Z,25.20
2017-11-03T03:10:40.148Z,25.27
2017-11-03T03:13:07.551Z,25.60
2017-11-03T03:15:34.991Z,25.83
2017-11-03T03:18:02.399Z,24.00
2017-11-03T03:20:29.819Z,24.33
2017-11-03T03:22:57.249Z,25.27
2017-11-03T03:25:24.659Z,25.60
2017-11-03T03:27:52.066Z,25.93
2017-11-03T03:30:19.487Z,25.45
2017-11-03T03:32:46.947Z,27.00
2017-11-03T03:35:14.358Z,26.17
2017-11-03T03:37:42.543Z,26.00
2017-11-03T03:40:11.433Z,27.10
2017-11-03T03:42:39.602Z,26.90
2017-11-03T03:45:07.018Z,26.33
2017-11-03T03:47:34.529Z,26.10
2017-11-03T03:50:02.694Z,25.60
2017-11-03T03:52:30.867Z,27.07
2017-11-03T03:54:59.034Z,26.10
2017-11-03T03:57:27.245Z,25.13
2017-11-03T03:59:54.663Z,26.00
2017-11-03T04:02:22.880Z,24.57
2017-11-03T04:04:50.299Z,24.83
2017-11-03T04:07:18.492Z,24.90
2017-11-03T04:09:45.903Z,23.83
2017-11-03T04:12:13.326Z,24.40
2017-11-03T04:14:42.107Z,25.23
2017-11-03T04:17:09.527Z,24.97
2017-11-03T04:19:37.707Z,24.70
2017-11-03T04:22:05.114Z,27.67
2017-11-03T04:24:32.530Z,24.93
2017-11-03T04:26:59.953Z,26.23
2017-11-03T04:29:27.621Z,25.77
2017-11-03T04:31:55.010Z,27.27
2017-11-03T04:34:22.421Z,25.53
2017-11-03T04:36:49.828Z,27.83
2017-11-03T04:39:17.249Z,24.83
2017-11-03T04:41:45.423Z,27.10
2017-11-03T04:44:13.663Z,26.70
2017-11-03T04:46:42.599Z,26.10
2017-11-03T04:49:10.779Z,28.50
2017-11-03T04:51:38.207Z,28.13
2017-11-03T04:54:05.614Z,27.33
2017-11-03T04:56:33.043Z,27.87
2017-11-03T04:59:00.465Z,27.43
2017-11-03T05:01:27.878Z,27.60
2017-11-03T05:03:55.292Z,27.47
2017-11-03T05:06:23.485Z,26.13
2017-11-03T05:08:51.655Z,27.60
2017-11-03T05:11:19.544Z,26.40
2017-11-03T05:13:46.958Z,26.80
2017-11-03T05:16:15.152Z,26.37
2017-11-03T05:18:42.591Z,24.77
2017-11-03T05:21:10.800Z,25.07
2017-11-03T05:23:38.364Z,25.27
2017-11-03T05:26:05.767Z,25.83
2017-11-03T05:28:33.176Z,25.10
2017-11-03T05:31:01.376Z,25.50
2017-11-03T05:33:28.788Z,25.95
2017-11-03T05:35:56.213Z,25.37
2017-11-03T05:38:23.623Z,24.33
2017-11-03T05:40:51.047Z,25.23
2017-11-03T05:43:18.450Z,28.00
2017-11-03T05:45:45.871Z,25.47
2017-11-03T05:48:13.283Z,25.43
2017-11-03T05:50:40.698Z,25.70
2017-11-03T05:53:08.118Z,25.57
2017-11-03T05:55:36.315Z,26.43
2017-11-03T05:58:03.726Z,24.87
2017-11-03T06:00:31.915Z,24.27
2017-11-03T06:03:00.100Z,25.30
2017-11-03T06:05:28.276Z,25.17
2017-11-03T06:07:55.871Z,24.07
2017-11-03T06:10:23.284Z,24.20
2017-11-03T06:12:51.457Z,23.37
2017-11-03T06:15:18.877Z,22.90
2017-11-03T06:17:46.307Z,23.70
2017-11-03T06:20:13.722Z,23.17
2017-11-03T06:22:41.895Z,22.80
2017-11-03T06:25:10.103Z,23.00
2017-11-03T06:27:37.526Z,25.60
2017-11-03T06:30:05.712Z,24.20
2017-11-03T06:32:33.134Z,23.50
2017-11-03T06:35:00.555Z,23.40
2017-11-03T06:37:27.967Z,23.03
2017-11-03T06:39:56.155Z,24.67
2017-11-03T06:42:23.575Z,23.60
2017-11-03T06:44:50.999Z,23.10
2017-11-03T06:47:18.433Z,23.50
2017-11-03T06:49:45.906Z,25.03
2017-11-03T06:52:14.859Z,23.12
2017-11-03T06:54:42.281Z,23.97
2017-11-03T06:57:09.700Z,23.30
2017-11-03T06:59:37.153Z,22.90
2017-11-03T07:02:04.570Z,23.40
2017-11-03T07:04:32.753Z,23.40
2017-11-03T07:07:00.958Z,21.97
2017-11-03T07:09:28.376Z,24.07
2017-11-03T07:11:56.566Z,24.10
2017-11-03T07:14:23.980Z,24.60
2017-11-03T07:16:51.395Z,24.50
2017-11-03T07:19:18.815Z,23.40
2017-11-03T07:21:46.999Z,24.87
2017-11-03T07:24:14.817Z,23.95
2017-11-03T07:26:42.238Z,23.73
2017-11-03T07:29:09.677Z,24.40
2017-11-03T07:31:37.088Z,23.07
2017-11-03T07:34:04.504Z,24.03
2017-11-03T07:36:31.973Z,25.40
2017-11-03T07:38:59.398Z,25.57
2017-11-03T07:41:27.580Z,24.73
2017-11-03T07:43:55.033Z,25.03
2017-11-03T07:46:22.418Z,24.40
2017-11-03T07:48:49.861Z,23.80
2017-11-03T07:51:17.258Z,24.70
2017-11-03T07:53:46.775Z,23.95
2017-11-03T07:56:15.127Z,24.73
2017-11-03T07:58:42.549Z,23.57
2017-11-03T08:01:09.983Z,24.57
2017-11-03T08:03:38.181Z,23.03
2017-11-03T08:06:05.599Z,23.47
2017-11-03T08:08:33.116Z,24.30
2017-11-03T08:11:01.174Z,24.23
2017-11-03T08:13:28.616Z,24.07
2017-11-03T08:15:56.020Z,23.77
2017-11-03T08:18:23.444Z,23.70
2017-11-03T08:20:50.865Z,23.90
2017-11-03T08:23:19.040Z,23.27
2017-11-03T08:25:47.243Z,23.30
2017-11-03T08:28:15.591Z,22.57
2017-11-03T08:30:43.754Z,20.63
2017-11-03T08:33:11.950Z,19.37
2017-11-03T08:35:39.430Z,19.07
2017-11-03T08:38:06.835Z,20.37
2017-11-03T08:40:34.266Z,19.50
2017-11-03T08:43:01.679Z,20.27
2017-11-03T08:45:29.106Z,20.00
2017-11-03T08:47:56.515Z,20.33
2017-11-03T08:50:24.069Z,17.10
2017-11-03T08:52:51.524Z,18.77
2017-11-03T08:55:18.980Z,18.43
2017-11-03T08:57:46.383Z,19.30
2017-11-03T09:00:13.819Z,17.77
2017-11-03T09:02:41.240Z,17.10
2017-11-03T09:05:08.650Z,18.00
2017-11-03T09:07:36.067Z,18.77
2017-11-03T09:10:03.500Z,18.40
2017-11-03T09:12:30.916Z,17.33
2017-11-03T09:14:59.848Z,17.50
2017-11-03T09:17:27.250Z,17.57
2017-11-03T09:19:54.678Z,17.90
2017-11-03T09:22:22.090Z,17.97
2017-11-03T09:24:50.283Z,17.20
2017-11-03T09:27:17.701Z,16.57
2017-11-03T09:29:45.130Z,16.80
2017-11-03T09:32:12.551Z,14.97
2017-11-03T09:34:39.967Z,15.53
2017-11-03T09:37:08.202Z,16.10
2017-11-03T09:39:35.818Z,15.37
2017-11-03T09:42:04.008Z,16.43
2017-11-03T09:44:31.439Z,16.57
2017-11-03T09:46:58.852Z,16.67
2017-11-03T09:49:26.287Z,17.40
2017-11-03T09:51:53.758Z,17.13
2017-11-03T09:54:21.167Z,17.70
2017-11-03T09:56:49.356Z,17.97
2017-11-03T09:59:18.138Z,17.27
2017-11-03T10:01:47.242Z,17.90
2017-11-03T10:04:14.667Z,20.17
2017-11-03T10:06:42.092Z,19.17
2017-11-03T10:09:09.506Z,20.30
2017-11-03T10:11:37.716Z,20.70
2017-11-03T10:14:05.140Z,22.03
2017-11-03T10:16:32.632Z,21.67
2017-11-03T10:19:00.043Z,19.23
2017-11-03T10:21:27.451Z,20.07
2017-11-03T10:23:54.902Z,22.10
2017-11-03T10:26:22.312Z,19.40
2017-11-03T10:28:50.505Z,22.23
2017-11-03T10:31:17.910Z,24.57
2017-11-03T10:33:45.336Z,25.90
2017-11-03T10:36:12.762Z,24.53
2017-11-03T10:38:40.185Z,22.80
2017-11-03T10:41:07.606Z,23.67
2017-11-03T10:43:35.040Z,24.17
2017-11-03T10:46:02.453Z,25.77
2017-11-03T10:48:29.875Z,27.40
2017-11-03T10:50:57.331Z,27.47
2017-11-03T10:53:24.747Z,27.70
2017-11-03T10:55:52.933Z,26.77
2017-11-03T10:58:20.359Z,26.60
2017-11-03T11:00:49.106Z,27.80
2017-11-03T11:03:16.566Z,28.90
2017-11-03T11:05:43.976Z,26.93
2017-11-03T11:08:12.172Z,27.00
2017-11-03T11:10:39.586Z,26.33
2017-11-03T11:13:07.026Z,26.00
2017-11-03T11:15:34.449Z,26.50
2017-11-03T11:18:01.899Z,26.90
2017-11-03T11:20:29.963Z,26.20
2017-11-03T11:22:57.379Z,26.63
2017-11-03T11:25:24.798Z,23.67
2017-11-03T11:27:52.219Z,27.40
2017-11-03T11:30:19.666Z,27.67
2017-11-03T11:32:48.774Z,27.17
2017-11-03T11:35:16.197Z,30.10
2017-11-03T11:37:43.626Z,27.23
2017-11-03T11:40:11.054Z,28.07
2017-11-03T11:42:38.528Z,27.20
2017-11-03T11:45:05.974Z,26.47
2017-11-03T11:47:33.372Z,27.50
2017-11-03T11:50:02.301Z,28.57
2017-11-03T11:52:29.781Z,27.60
2017-11-03T11:54:57.219Z,28.40
2017-11-03T11:57:24.694Z,28.10
2017-11-03T11:59:52.145Z,27.67
2017-11-03T12:02:19.560Z,27.30
2017-11-03T12:04:47.743Z,26.50
2017-11-03T12:07:15.945Z,25.23
2017-11-03T12:09:43.510Z,25.43
2017-11-03T12:12:10.960Z,24.60
2017-11-03T12:14:38.367Z,25.90
2017-11-03T12:17:05.880Z,23.80
2017-11-03T12:19:33.297Z,23.67
2017-11-03T12:22:01.515Z,25.60
2017-11-03T12:24:28.951Z,25.90
2017-11-03T12:26:56.422Z,24.60
2017-11-03T12:29:23.839Z,23.03
2017-11-03T12:31:52.051Z,23.17
2017-11-03T12:34:20.043Z,21.70
2017-11-03T12:36:47.465Z,22.03
2017-11-03T12:39:14.933Z,20.37
2017-11-03T12:41:42.331Z,19.63
2017-11-03T12:44:09.759Z,18.57
2017-11-03T12:46:37.174Z,17.97
2017-11-03T12:49:04.595Z,19.47
2017-11-03T12:51:32.024Z,19.93
2017-11-03T12:53:59.431Z,21.60
2017-11-03T12:56:27.661Z,21.70
2017-11-03T12:58:55.101Z,23.60
2017-11-03T13:01:22.521Z,24.33
2017-11-03T13:03:51.207Z,23.85
2017-11-03T13:06:20.317Z,24.83
2017-11-03T13:08:47.722Z,24.33
2017-11-03T13:11:15.245Z,24.00
2017-11-03T13:13:42.670Z,22.17
2017-11-03T13:16:10.851Z,24.47
2017-11-03T13:18:38.272Z,29.17
2017-11-03T13:21:05.798Z,29.50
2017-11-03T13:23:33.199Z,31.00
2017-11-03T13:26:01.419Z,29.45
2017-11-03T13:28:28.832Z,28.97
2017-11-03T13:30:57.016Z,29.73
2017-11-03T13:33:25.199Z,30.30
2017-11-03T13:35:52.622Z,30.90
2017-11-03T13:38:20.974Z,31.03
2017-11-03T13:40:48.403Z,29.77
2017-11-03T13:43:15.827Z,31.60
2017-11-03T13:45:44.014Z,32.93
2017-11-03T13:48:12.216Z,32.07
2017-11-03T13:50:39.627Z,32.17
2017-11-03T13:53:07.815Z,34.57
2017-11-03T13:55:35.995Z,31.23
2017-11-03T13:58:03.416Z,32.00
2017-11-03T14:00:30.936Z,30.80
2017-11-03T14:02:58.350Z,31.50
2017-11-03T14:05:26.531Z,31.97
2017-11-03T14:07:54.723Z,33.57
2017-11-03T14:10:22.135Z,32.47
2017-11-03T14:12:49.560Z,32.57
2017-11-03T14:15:17.009Z,33.20
2017-11-03T14:17:44.447Z,33.47
2017-11-03T14:20:11.855Z,35.40
2017-11-03T14:22:40.034Z,35.80
2017-11-03T14:25:07.853Z,35.27
2017-11-03T14:27:35.263Z,34.57
2017-11-03T14:30:03.452Z,34.50
2017-11-03T14:32:31.623Z,34.23
2017-11-03T14:34:59.830Z,35.43
2017-11-03T14:37:27.249Z,37.37
2017-11-03T14:39:55.434Z,35.93
2017-11-03T14:42:22.867Z,33.00
2017-11-03T14:44:50.363Z,31.77
2017-11-03T14:47:17.854Z,33.73
2017-11-03T14:49:45.264Z,34.40
2017-11-03T14:52:12.688Z,36.13
2017-11-03T14:54:40.110Z,34.43
2017-11-03T14:57:07.539Z,35.13
2017-11-03T14:59:35.731Z,36.80
2017-11-03T15:02:03.283Z,36.90
2017-11-03T15:04:30.696Z,35.40
2017-11-03T15:06:58.875Z,35.70
2017-11-03T15:09:26.294Z,38.13
2017-11-03T15:11:54.136Z,37.87
2017-11-03T15:14:23.103Z,36.40
2017-11-03T15:16:52.220Z,36.47
2017-11-03T15:19:19.638Z,35.73
2017-11-03T15:21:47.824Z,36.67
2017-11-03T15:24:15.242Z,37.00
2017-11-03T15:26:42.654Z,36.67
2017-11-03T15:29:10.080Z,38.13
2017-11-03T15:31:38.281Z,37.13
2017-11-03T15:34:05.751Z,36.57
2017-11-03T15:36:33.166Z,36.10
2017-11-03T15:39:01.356Z,36.53
2017-11-03T15:41:28.773Z,37.70
2017-11-03T15:43:56.391Z,37.70
2017-11-03T15:46:23.806Z,37.93
2017-11-03T15:48:52.913Z,37.13
2017-11-03T15:51:21.099Z,37.03
2017-11-03T15:53:48.516Z,36.60
2017-11-03T15:56:15.934Z,39.27
2017-11-03T15:58:43.359Z,36.60
2017-11-03T16:01:11.459Z,37.17
2017-11-03T16:03:38.888Z,36.50
2017-11-03T16:06:07.089Z,39.00
2017-11-03T16:08:34.503Z,35.10
2017-11-03T16:11:02.700Z,34.93
2017-11-03T16:13:30.126Z,36.13
2017-11-03T16:15:57.548Z,35.50
2017-11-03T16:18:24.967Z,38.23
2017-11-03T16:20:53.954Z,35.30
2017-11-03T16:23:21.367Z,35.73
2017-11-03T16:25:48.790Z,36.43
2017-11-03T16:28:16.247Z,35.80
2017-11-03T16:30:43.666Z,36.87
2017-11-03T16:33:11.875Z,34.77
2017-11-03T16:35:40.106Z,34.50
2017-11-03T16:38:07.511Z,35.60
2017-11-03T16:40:34.935Z,33.53
2017-11-03T16:43:03.143Z,34.60
2017-11-03T16:45:30.558Z,35.10
2017-11-03T16:47:58.751Z,35.03
2017-11-03T16:50:26.227Z,35.03
2017-11-03T16:52:54.466Z,35.78
2017-11-03T16:55:23.607Z,37.27
2017-11-03T16:57:51.024Z,37.57
2017-11-03T17:00:20.357Z,36.30
2017-11-03T17:02:47.774Z,35.30
2017-11-03T17:05:15.961Z,36.20
2017-11-03T17:07:43.382Z,33.33
2017-11-03T17:10:10.893Z,33.53
2017-11-03T17:12:38.324Z,34.17
2017-11-03T17:15:05.741Z,34.30
2017-11-03T17:17:33.183Z,34.37
2017-11-03T17:20:00.602Z,35.40
2017-11-03T17:22:28.048Z,37.30
2017-11-03T17:24:55.472Z,38.73
2017-11-03T17:27:22.891Z,38.10
2017-11-03T17:29:50.323Z,37.10
2017-11-03T17:32:17.737Z,38.23
2017-11-03T17:34:45.155Z,37.57
2017-11-03T17:37:12.604Z,38.17
2017-11-03T17:39:40.034Z,37.47
2017-11-03T17:42:08.223Z,37.60
2017-11-03T17:44:35.643Z,36.40
2017-11-03T17:47:03.071Z,35.10
2017-11-03T17:49:30.495Z,36.90
2017-11-03T17:51:57.919Z,36.50
2017-11-03T17:54:26.140Z,38.00
2017-11-03T17:56:54.500Z,36.20
2017-11-03T17:59:22.670Z,34.33
2017-11-03T18:01:50.087Z,36.23
2017-11-03T18:04:17.606Z,36.70
2017-11-03T18:06:45.018Z,35.17
2017-11-03T18:09:13.219Z,37.57
2017-11-03T18:11:40.678Z,36.30
2017-11-03T18:14:08.103Z,36.27
2017-11-03T18:16:36.292Z,34.63
2017-11-03T18:19:04.463Z,37.37
2017-11-03T18:21:31.888Z,34.97
2017-11-03T18:23:59.505Z,35.67
2017-11-03T18:26:26.908Z,36.90
2017-11-03T18:28:54.325Z,36.47
2017-11-03T18:31:21.750Z,38.83
2017-11-03T18:33:49.932Z,36.83
2017-11-03T18:36:18.150Z,38.50
2017-11-03T18:38:45.575Z,37.23
2017-11-03T18:41:13.137Z,36.53
2017-11-03T18:43:40.543Z,36.60
2017-11-03T18:46:08.719Z,36.67
2017-11-03T18:48:36.942Z,35.93
2017-11-03T18:51:04.391Z,36.80
2017-11-03T18:53:31.847Z,35.97
2017-11-03T18:55:59.279Z,36.77
2017-11-03T18:58:26.712Z,37.00
2017-11-03T19:00:54.308Z,36.83
2017-11-03T19:03:21.743Z,40.53
2017-11-03T19:05:49.922Z,40.43
2017-11-03T19:08:18.099Z,36.83
2017-11-03T19:10:45.584Z,36.73
2017-11-03T19:13:12.982Z,36.60
2017-11-03T19:15:40.493Z,36.97
2017-11-03T19:18:07.923Z,36.83
2017-11-03T19:20:35.411Z,36.23
2017-11-03T19:23:02.835Z,36.40
2017-11-03T19:25:31.019Z,37.33
2017-11-03T19:27:58.433Z,36.27
2017-11-03T19:30:27.054Z,38.30
2017-11-03T19:32:56.171Z,37.30
2017-11-03T19:35:23.594Z,38.00
2017-11-03T19:37:51.783Z,38.60
2017-11-03T19:40:19.195Z,36.53
2017-11-03T19:42:46.621Z,38.67
2017-11-03T19:45:14.067Z,38.70
2017-11-03T19:47:41.487Z,38.30
2017-11-03T19:50:09.666Z,38.80
2017-11-03T19:52:37.844Z,36.70
2017-11-03T19:55:06.018Z,38.27
2017-11-03T19:57:34.499Z,36.40
2017-11-03T20:00:01.996Z,37.40
2017-11-03T20:02:29.407Z,38.30
2017-11-03T20:04:57.706Z,40.05
2017-11-03T20:07:25.127Z,42.37
2017-11-03T20:09:53.306Z,40.80
2017-11-03T20:12:21.492Z,44.60
2017-11-03T20:14:48.920Z,44.90
2017-11-03T20:17:16.438Z,43.37
2017-11-03T20:19:43.850Z,46.87
2017-11-03T20:22:12.049Z,44.17
2017-11-03T20:24:39.458Z,41.67
2017-11-03T20:27:06.875Z,43.53
2017-11-03T20:29:34.287Z,43.47
2017-11-03T20:32:02.460Z,42.60
2017-11-03T20:34:30.643Z,43.70
2017-11-03T20:36:58.822Z,41.43
2017-11-03T20:39:27.942Z,42.17
2017-11-03T20:41:55.343Z,42.60
2017-11-03T20:44:22.752Z,43.07
2017-11-03T20:46:50.167Z,43.10
2017-11-03T20:49:18.379Z,44.53
2017-11-03T20:51:45.795Z,45.63
2017-11-03T20:54:14.012Z,44.67
2017-11-03T20:56:41.423Z,41.20
2017-11-03T20:59:09.606Z,39.33
2017-11-03T21:01:37.789Z,43.07
2017-11-03T21:04:05.210Z,43.83
2017-11-03T21:06:32.627Z,43.47
2017-11-03T21:09:00.046Z,45.97
2017-11-03T21:11:28.840Z,44.57
2017-11-03T21:13:57.028Z,42.93
2017-11-03T21:16:24.460Z,41.77
2017-11-03T21:18:52.646Z,42.90
2017-11-03T21:21:20.823Z,41.50
2017-11-03T21:23:48.234Z,45.33
2017-11-03T21:26:15.646Z,45.13
2017-11-03T21:28:43.056Z,41.40
2017-11-03T21:31:10.473Z,42.50
2017-11-03T21:33:37.890Z,41.07
2017-11-03T21:36:06.063Z,40.73
2017-11-03T21:38:34.263Z,41.30
2017-11-03T21:41:01.670Z,42.40
2017-11-03T21:43:29.080Z,41.63
2017-11-03T21:45:56.507Z,43.80
2017-11-03T21:48:24.699Z,43.70
2017-11-03T21:50:52.118Z,45.30
2017-11-03T21:53:19.531Z,43.57
2017-11-03T21:55:46.956Z,42.03
2017-11-03T21:58:15.242Z,41.50
2017-11-03T22:00:42.650Z,40.90
2017-11-03T22:03:10.071Z,40.70
2017-11-03T22:05:37.490Z,41.73
2017-11-03T22:08:05.667Z,44.47
2017-11-03T22:10:33.855Z,45.97
2017-11-03T22:13:01.268Z,41.77
2017-11-03T22:15:30.081Z,41.22
2017-11-03T22:17:58.288Z,42.33
2017-11-03T22:20:25.687Z,42.03
2017-11-03T22:22:53.101Z,41.17
2017-11-03T22:25:20.522Z,42.77
2017-11-03T22:27:48.699Z,42.47
2017-11-03T22:30:16.115Z,41.10
2017-11-03T22:32:43.528Z,42.67
2017-11-03T22:35:10.943Z,39.87
2017-11-03T22:37:38.347Z,41.20
2017-11-03T22:40:05.791Z,40.00
2017-11-03T22:42:33.199Z,43.00
2017-11-03T22:45:00.612Z,42.43
2017-11-03T22:47:28.044Z,41.30
2017-11-03T22:49:56.237Z,40.63
2017-11-03T22:52:23.627Z,40.20
2017-11-03T22:54:51.046Z,40.27
2017-11-03T22:57:18.459Z,40.03
2017-11-03T22:59:45.870Z,41.03
2017-11-03T23:02:13.299Z,43.50
2017-11-03T23:04:41.474Z,41.17
2017-11-03T23:07:08.879Z,40.65
2017-11-03T23:09:36.295Z,41.57
2017-11-03T23:12:03.706Z,40.97
2017-11-03T23:14:31.320Z,41.40
2017-11-03T23:16:58.780Z,39.63
2017-11-03T23:19:26.204Z,39.03
2017-11-03T23:21:56.192Z,39.53
2017-11-03T23:24:23.611Z,37.97
2017-11-03T23:26:51.026Z,40.17
2017-11-03T23:29:19.202Z,40.37
2017-11-03T23:31:46.607Z,39.40
2017-11-03T23:34:14.359Z,39.60
2017-11-03T23:36:41.777Z,38.00
2017-11-03T23:39:09.969Z,38.20
2017-11-03T23:41:37.371Z,39.20
2017-11-03T23:44:04.790Z,39.10
2017-11-03T23:46:32.208Z,39.40
2017-11-03T23:49:01.472Z,39.10
2017-11-03T23:51:28.891Z,39.30
2017-11-03T23:53:56.306Z,38.07
2017-11-03T23:56:23.808Z,40.27
2017-11-03T23:58:51.227Z,40.63
